Time;durP1;ratioP1;P1;durP2;ratioP2;P2;SDS_P1;SDS_P2;PMS_P1;PMS_P2;Temp;Humidity;BMP_temperature;BMP_pressure;BME280_temperature;BME280_humidity;BME280_pressure;Samples;Min_cycle;Max_cycle;Signal;HPM_P1;HPM_P2
2020/05/13 00:01:36;;;;;;;7.8;7.1;;;;;;;8.49;71.72363;954.0639;;;;
2020/05/13 00:03:59;;;;;;;8;7.3;;;;;;;8.35;72.78711;954.1221;;;;
2020/05/13 00:06:32;;;;;;;8.4;7.6;;;;;;;8.34;72.52441;954.1509;;;;
2020/05/13 00:11:16;;;;;;;8.3;7.5;;;;;;;8.28;73.26758;954.2481;;;;
2020/05/13 00:13:41;;;;;;;8.2;7.5;;;;;;;8.29;73.13184;954.1908;;;;
2020/05/13 00:16:12;;;;;;;7.9;7.2;;;;;;;8.36;73.22363;954.2748;;;;
2020/05/13 00:18:32;;;;;;;8.2;7.5;;;;;;;8.43;72.52637;954.2025;;;;
2020/05/13 00:20:56;;;;;;;7.8;7.1;;;;;;;8.52;71.79688;954.1099;;;;
2020/05/13 00:23:22;;;;;;;7.8;7.1;;;;;;;8.54;71.42285;954.1283;;;;
2020/05/13 00:25:48;;;;;;;8.1;7.4;;;;;;;8.38;73.24023;954.2562;;;;
2020/05/13 00:28:13;;;;;;;8.5;7.7;;;;;;;8.4;73.62109;954.2352;;;;
2020/05/13 00:30:54;;;;;;;8.4;7.6;;;;;;;8.31;72.97461;954.2137;;;;
2020/05/13 00:33:11;;;;;;;8.4;7.7;;;;;;;8.34;74.45898;954.2151;;;;
2020/05/13 00:35:44;;;;;;;8.6;7.5;;;;;;;8.37;74.28027;954.1158;;;;
2020/05/13 00:38:15;;;;;;;8.8;8;;;;;;;8.22;75.70801;954.1252;;;;
2020/05/13 00:40:42;;;;;;;8.6;7.9;;;;;;;8.22;77.15039;954.1609;;;;
2020/05/13 00:43:38;;;;;;;8.6;7.9;;;;;;;8.29;77.2666;954.117;;;;
2020/05/13 00:45:37;;;;;;;9.4;8.5;;;;;;;8.26;79.37793;954.1116;;;;
2020/05/13 00:47:44;;;;;;;9.4;8.5;;;;;;;8.21;81.0752;954.0845;;;;
2020/05/13 00:50:08;;;;;;;10.3;9.3;;;;;;;8.07;81.0957;954.0655;;;;
2020/05/13 00:52:31;;;;;;;10.1;9.1;;;;;;;8.02;82.3877;954.0372;;;;
2020/05/13 00:54:56;;;;;;;10.2;9.2;;;;;;;8.01;83.30176;953.9426;;;;
2020/05/13 00:57:24;;;;;;;10.4;9.5;;;;;;;7.93;83.41113;953.8683;;;;
2020/05/13 00:59:48;;;;;;;10.8;9.8;;;;;;;7.81;84.89648;953.9016;;;;
2020/05/13 01:02:13;;;;;;;10.6;9.6;;;;;;;8.01;82.92578;953.8039;;;;
2020/05/13 01:04:38;;;;;;;10;9.1;;;;;;;8.05;81.08887;953.7916;;;;
2020/05/13 01:07:03;;;;;;;10.8;9.7;;;;;;;7.93;84.0293;953.7928;;;;
2020/05/13 01:09:29;;;;;;;10.5;9.5;;;;;;;7.94;83.94141;953.793;;;;
2020/05/13 01:11:54;;;;;;;11;10;;;;;;;7.77;84.65137;953.7642;;;;
2020/05/13 01:14:20;;;;;;;10.9;9.8;;;;;;;7.87;84.13281;953.8898;;;;
2020/05/13 01:16:45;;;;;;;10.4;9.5;;;;;;;7.89;84.8916;953.9119;;;;
2020/05/13 01:19:11;;;;;;;10.1;9.2;;;;;;;7.91;83.69434;953.9043;;;;
2020/05/13 01:22:22;;;;;;;11;10;;;;;;;7.84;84.28809;953.8356;;;;
2020/05/13 01:24:02;;;;;;;10.8;9.8;;;;;;;7.83;83.94141;953.9285;;;;
2020/05/13 01:26:27;;;;;;;10.4;9.4;;;;;;;7.96;82.61816;954.0068;;;;
2020/05/13 01:28:53;;;;;;;10.8;9.8;;;;;;;7.98;84.97754;953.9997;;;;
2020/05/13 01:31:18;;;;;;;10.4;9.4;;;;;;;7.86;83.14746;954.0134;;;;
2020/05/13 01:33:43;;;;;;;10.2;9.3;;;;;;;7.87;82.44043;953.8744;;;;
2020/05/13 01:36:08;;;;;;;9.9;9;;;;;;;8.06;81.33203;953.8602;;;;
2020/05/13 01:38:33;;;;;;;10.5;9.5;;;;;;;8.09;81.31445;953.842;;;;
2020/05/13 01:41:27;;;;;;;10;9.1;;;;;;;8.03;82.83789;953.6316;;;;
2020/05/13 01:43:50;;;;;;;10.3;9.3;;;;;;;7.93;82.61133;953.5195;;;;
2020/05/13 01:46:20;;;;;;;10.3;9.3;;;;;;;8;82.2832;953.5264;;;;
2020/05/13 01:48:22;;;;;;;10.5;9.5;;;;;;;7.93;82.41602;953.4639;;;;
2020/05/13 01:50:49;;;;;;;10.4;9.5;;;;;;;7.85;83.11133;953.5494;;;;
2020/05/13 01:53:09;;;;;;;10.5;9.5;;;;;;;8;83.3457;953.5783;;;;
2020/05/13 01:55:38;;;;;;;10.3;9.4;;;;;;;7.88;83.55176;953.563;;;;
2020/05/13 02:00:46;;;;;;;10.7;9.7;;;;;;;7.83;82.75195;953.6689;;;;
2020/05/13 02:02:52;;;;;;;11.1;10;;;;;;;7.78;84.03516;953.6219;;;;
2020/05/13 02:05:17;;;;;;;10.5;9.6;;;;;;;7.89;83.41797;953.6498;;;;
2020/05/13 02:07:48;;;;;;;11;9.9;;;;;;;7.88;82.64844;953.4105;;;;
2020/05/13 02:10:45;;;;;;;10.4;9.4;;;;;;;7.82;84.03125;953.4661;;;;
2020/05/13 02:12:32;;;;;;;10.6;9.6;;;;;;;7.83;82.76563;953.772;;;;
2020/05/13 02:14:57;;;;;;;10.7;9.7;;;;;;;7.86;84.2666;953.7312;;;;
2020/05/13 02:20:48;;;;;;;10.9;9.8;;;;;;;7.7;82.46289;953.5545;;;;
2020/05/13 02:24:38;;;;;;;10.6;9.6;;;;;;;7.95;82.00977;953.8295;;;;
2020/05/13 02:27:07;;;;;;;10.7;9.6;;;;;;;8.05;82.16602;953.9014;;;;
2020/05/13 02:29:48;;;;;;;10.4;9.3;;;;;;;7.99;80.67773;953.8856;;;;
2020/05/13 02:32:06;;;;;;;10.2;9.2;;;;;;;8.04;80.43457;953.8547;;;;
2020/05/13 02:34:18;;;;;;;10.9;9.9;;;;;;;7.94;82.83203;953.8351;;;;
2020/05/13 02:36:52;;;;;;;11.1;10;;;;;;;7.98;80.18457;953.8212;;;;
2020/05/13 02:39:11;;;;;;;11.1;10;;;;;;;7.91;81.08398;953.8353;;;;
2020/05/13 02:43:59;;;;;;;11.1;10;;;;;;;7.94;81.40039;953.7612;;;;
2020/05/13 02:46:26;;;;;;;11;10;;;;;;;7.99;80.56348;953.6544;;;;
2020/05/13 02:49:02;;;;;;;11.1;10;;;;;;;8.04;80.58301;953.6852;;;;
2020/05/13 02:51:17;;;;;;;11;9.9;;;;;;;7.93;79.91113;953.7916;;;;
2020/05/13 02:53:49;;;;;;;9.7;8.8;;;;;;;8.05;79.41992;953.7521;;;;
2020/05/13 02:58:34;;;;;;;10.9;9.8;;;;;;;7.79;81.7959;953.6342;;;;
2020/05/13 03:00:57;;;;;;;10.8;9.8;;;;;;;7.83;81.3916;953.5619;;;;
2020/05/13 03:03:27;;;;;;;11.4;10.3;;;;;;;7.77;81.40332;953.4959;;;;
2020/05/13 03:09:15;;;;;;;10.4;9.4;;;;;;;8.08;80.44336;953.528;;;;
2020/05/13 03:10:49;;;;;;;10.5;9.5;;;;;;;7.88;80.58887;953.55;;;;
2020/05/13 03:13:14;;;;;;;10.8;9.8;;;;;;;7.81;81.95996;953.5154;;;;
2020/05/13 03:15:41;;;;;;;11;9.9;;;;;;;7.85;81.41895;953.4578;;;;
2020/05/13 03:18:07;;;;;;;10.6;9.6;;;;;;;7.8;81.11133;953.4324;;;;
2020/05/13 03:20:32;;;;;;;11.1;10;;;;;;;7.9;80.3291;953.3842;;;;
2020/05/13 03:22:57;;;;;;;10.6;9.5;;;;;;;7.93;79.6709;953.2932;;;;
2020/05/13 03:30:16;;;;;;;11.1;10;;;;;;;7.72;81.58789;953.5689;;;;
2020/05/13 03:32:37;;;;;;;11.7;10.5;;;;;;;7.56;81.31738;953.8663;;;;
2020/05/13 03:35:04;;;;;;;11.9;10.7;;;;;;;7.7;81.34277;954.0743;;;;
2020/05/13 03:39:53;;;;;;;10.6;9.6;;;;;;;7.85;80.38965;953.4236;;;;
2020/05/13 03:42:18;;;;;;;11.8;10.7;;;;;;;7.74;84.33691;953.2512;;;;
2020/05/13 03:44:44;;;;;;;12.6;11.4;;;;;;;7.68;87.74316;953.1948;;;;
2020/05/13 03:47:09;;;;;;;12.7;11.4;;;;;;;7.45;88.25586;953.5098;;;;
2020/05/13 03:49:41;;;;;;;11.2;10.2;;;;;;;7.61;86.63086;953.7749;;;;
2020/05/13 03:52:04;;;;;;;11;10;;;;;;;7.73;87.13477;953.878;;;;
2020/05/13 03:56:58;;;;;;;12.2;11;;;;;;;7.72;87.69336;953.8065;;;;
2020/05/13 03:59:16;;;;;;;11.9;10.8;;;;;;;7.74;90.30371;953.7896;;;;
2020/05/13 04:02:31;;;;;;;13.7;12.3;;;;;;;7.69;91.34668;953.7937;;;;
2020/05/13 04:04:54;;;;;;;13.4;12.1;;;;;;;7.75;90.75195;953.6664;;;;
2020/05/13 04:07:19;;;;;;;13.4;12.1;;;;;;;7.52;92.28125;953.7447;;;;
2020/05/13 04:09:48;;;;;;;14.5;12.9;;;;;;;7.57;94.34863;953.7085;;;;
2020/05/13 04:12:11;;;;;;;13.7;12.4;;;;;;;7.46;95.54785;953.7686;;;;
2020/05/13 04:15:39;;;;;;;13.6;12.3;;;;;;;7.62;93.85742;953.8391;;;;
2020/05/13 04:18:01;;;;;;;13.2;11.9;;;;;;;7.66;92.15234;953.8653;;;;
2020/05/13 04:20:26;;;;;;;14.4;12.9;;;;;;;7.74;92.62695;954.0427;;;;
2020/05/13 04:22:51;;;;;;;13.7;12.3;;;;;;;7.39;90.4248;954.1545;;;;
2020/05/13 04:25:16;;;;;;;13.9;12.5;;;;;;;7.57;93.25098;954.1195;;;;
2020/05/13 04:27:41;;;;;;;14.6;13.1;;;;;;;7.64;94.65039;954.1306;;;;
2020/05/13 04:30:07;;;;;;;14.1;12.8;;;;;;;7.77;92.63281;954.04;;;;
2020/05/13 04:32:32;;;;;;;14.6;13.2;;;;;;;7.79;94.48926;953.8329;;;;
2020/05/13 04:34:57;;;;;;;14.2;12.8;;;;;;;7.84;94.94531;953.7388;;;;
2020/05/13 04:37:22;;;;;;;13.9;12.6;;;;;;;7.96;93.75977;953.7545;;;;
2020/05/13 04:39:53;;;;;;;14.5;13.1;;;;;;;8.01;96.30078;953.8267;;;;
2020/05/13 04:44:55;;;;;;;14.8;13.3;;;;;;;8.11;96.44824;953.8458;;;;
2020/05/13 04:47:17;;;;;;;13.7;12.4;;;;;;;8.08;95.20605;953.7073;;;;
2020/05/13 04:49:30;;;;;;;14.4;13.1;;;;;;;7.95;93.72168;953.5958;;;;
2020/05/13 04:51:55;;;;;;;14.9;13.5;;;;;;;7.98;95.38867;953.7498;;;;
2020/05/13 04:54:20;;;;;;;13.6;12.3;;;;;;;8.05;92.41797;953.8641;;;;
2020/05/13 04:56:45;;;;;;;14.3;12.9;;;;;;;8.04;94.04102;953.9286;;;;
2020/05/13 04:59:10;;;;;;;15;13.5;;;;;;;7.96;93.34668;954.2906;;;;
2020/05/13 05:01:37;;;;;;;14.6;13.1;;;;;;;7.82;91.26074;954.2496;;;;
2020/05/13 05:04:02;;;;;;;13.7;12.4;;;;;;;7.94;92.39258;953.8886;;;;
2020/05/13 05:06:28;;;;;;;14.4;13;;;;;;;7.95;94.1582;953.8044;;;;
2020/05/13 05:08:53;;;;;;;15.6;14.1;;;;;;;7.98;98.36328;953.8933;;;;
2020/05/13 05:11:20;;;;;;;16;14.4;;;;;;;7.98;95.37695;954.1911;;;;
2020/05/13 05:13:45;;;;;;;13.3;12.1;;;;;;;8.24;92.57324;954.2636;;;;
2020/05/13 05:16:10;;;;;;;14.7;13.2;;;;;;;8.2;95.02441;954.2256;;;;
2020/05/13 05:18:36;;;;;;;13.8;12.6;;;;;;;8.17;93.2002;954.1479;;;;
2020/05/13 05:21:01;;;;;;;13.9;12.5;;;;;;;8.25;93.58203;954.1161;;;;
2020/05/13 05:23:27;;;;;;;14.9;13.5;;;;;;;8.1;96.80078;953.9006;;;;
2020/05/13 05:25:52;;;;;;;15.5;14;;;;;;;7.97;96.54395;953.9931;;;;
2020/05/13 05:28:18;;;;;;;15.9;14.4;;;;;;;8.22;95.90039;954.1082;;;;
2020/05/13 05:33:14;;;;;;;15.4;14;;;;;;;8.31;97.12207;954.0148;;;;
2020/05/13 05:35:33;;;;;;;15.4;13.9;;;;;;;8.32;96.36816;954.1297;;;;
2020/05/13 05:37:58;;;;;;;15.6;14;;;;;;;8.33;96.41602;954.0811;;;;
2020/05/13 05:40:24;;;;;;;15.1;13.6;;;;;;;8.35;94.9209;954.1725;;;;
2020/05/13 05:42:49;;;;;;;15.8;14.3;;;;;;;8.47;94.3623;954.0645;;;;
2020/05/13 05:45:14;;;;;;;15.1;13.5;;;;;;;8.5;94.12891;954.0715;;;;
2020/05/13 05:47:39;;;;;;;16.5;14.9;;;;;;;8.3;94.07324;954.0984;;;;
2020/05/13 05:50:04;;;;;;;14.8;13.5;;;;;;;8.41;92.24316;954.0522;;;;
2020/05/13 05:52:29;;;;;;;15.6;14.1;;;;;;;8.36;93.5957;954.1044;;;;
2020/05/13 05:54:54;;;;;;;15.7;14.2;;;;;;;8.46;92.60742;954.0666;;;;
2020/05/13 05:57:20;;;;;;;13.9;12.6;;;;;;;8.55;90.81934;954.1259;;;;
2020/05/13 05:59:45;;;;;;;14.9;13.5;;;;;;;8.49;90.54004;954.1508;;;;
2020/05/13 06:02:11;;;;;;;14.4;13.1;;;;;;;8.57;90.63965;954.2758;;;;
2020/05/13 06:04:36;;;;;;;13.5;12.2;;;;;;;8.59;86.6543;954.1357;;;;
2020/05/13 06:07:05;;;;;;;13.6;12.2;;;;;;;8.37;88.06738;954.2133;;;;
2020/05/13 06:09:30;;;;;;;14.1;12.8;;;;;;;8.43;89.15527;954.1749;;;;
2020/05/13 06:11:55;;;;;;;14.5;13.2;;;;;;;8.35;90.95898;954.106;;;;
2020/05/13 06:14:20;;;;;;;15;13.6;;;;;;;8.24;91.45117;954.1249;;;;
2020/05/13 06:16:45;;;;;;;13.7;12.3;;;;;;;8.57;88.76074;954.0711;;;;
2020/05/13 06:19:10;;;;;;;12.8;11.6;;;;;;;8.74;88.42871;954.1131;;;;
2020/05/13 06:21:35;;;;;;;13.1;11.9;;;;;;;8.94;87.18555;954.1406;;;;
2020/05/13 06:24:01;;;;;;;13.8;12.4;;;;;;;8.76;88.77637;954.0775;;;;
2020/05/13 06:26:25;;;;;;;13.8;12.5;;;;;;;8.59;90.52832;954.0976;;;;
2020/05/13 06:28:51;;;;;;;13.6;12.1;;;;;;;8.46;87.74219;954.1981;;;;
2020/05/13 06:31:16;;;;;;;13.8;12.4;;;;;;;8.63;90.72168;954.1558;;;;
2020/05/13 06:33:58;;;;;;;13.6;12.3;;;;;;;8.84;89.2627;954.1155;;;;
2020/05/13 06:36:23;;;;;;;12.5;11.2;;;;;;;9.1;84.25879;954.1304;;;;
2020/05/13 06:38:49;;;;;;;12;10.9;;;;;;;8.98;85.17578;954.1131;;;;
2020/05/13 06:41:14;;;;;;;12.5;11.4;;;;;;;8.85;85.84863;954.1555;;;;
2020/05/13 06:43:39;;;;;;;13.3;12.1;;;;;;;;;;;;;
2020/05/13 06:46:04;;;;;;;13.2;12;;;;;;;;;;;;;
2020/05/13 06:48:29;;;;;;;12.9;11.3;;;;;;;;;;;;;
2020/05/13 06:58:23;;;;;;;12.9;11.7;;;;;;;;;;;;;
2020/05/13 07:03:30;;;;;;;12.5;11.3;;;;;;;;;;;;;
2020/05/13 07:13:23;;;;;;;13;11.6;;;;;;;;;;;;;
2020/05/13 07:18:37;;;;;;;12.1;11;;;;;;;;;;;;;
2020/05/13 07:20:12;;;;;;;11.2;10.1;;;;;;;;;;;;;
2020/05/13 07:22:24;;;;;;;12;10.9;;;;;;;;;;;;;
2020/05/13 07:24:47;;;;;;;11.7;10.6;;;;;;;;;;;;;
2020/05/13 07:27:12;;;;;;;11.3;10.2;;;;;;;;;;;;;
2020/05/13 07:29:37;;;;;;;10.9;9.9;;;;;;;;;;;;;
2020/05/13 07:32:02;;;;;;;10.8;9.7;;;;;;;;;;;;;
2020/05/13 07:34:28;;;;;;;9.1;8.2;;;;;;;;;;;;;
2020/05/13 07:36:53;;;;;;;8.5;7.7;;;;;;;;;;;;;
2020/05/13 07:39:18;;;;;;;10;9.1;;;;;;;;;;;;;
2020/05/13 07:41:43;;;;;;;9.6;8.7;;;;;;;;;;;;;
2020/05/13 07:44:09;;;;;;;10.7;9.7;;;;;;;;;;;;;
2020/05/13 07:46:34;;;;;;;9.5;8.7;;;;;;;;;;;;;
2020/05/13 07:49:00;;;;;;;9.3;8.4;;;;;;;;;;;;;
2020/05/13 07:51:25;;;;;;;8.9;8.2;;;;;;;;;;;;;
2020/05/13 07:53:50;;;;;;;8.6;7.8;;;;;;;;;;;;;
2020/05/13 07:56:15;;;;;;;9.2;8.4;;;;;;;;;;;;;
2020/05/13 07:58:40;;;;;;;9.2;8.4;;;;;;;;;;;;;
2020/05/13 08:01:05;;;;;;;8.5;7.7;;;;;;;;;;;;;
2020/05/13 08:03:31;;;;;;;7.5;6.6;;;;;;;;;;;;;
2020/05/13 08:05:56;;;;;;;7.4;6.7;;;;;;;;;;;;;
2020/05/13 08:08:21;;;;;;;7.9;6.9;;;;;;;;;;;;;
2020/05/13 08:10:47;;;;;;;7.3;6.6;;;;;;;;;;;;;
2020/05/13 08:13:12;;;;;;;7.5;6.8;;;;;;;;;;;;;
2020/05/13 08:15:38;;;;;;;8.1;7.4;;;;;;;;;;;;;
2020/05/13 08:18:03;;;;;;;8.1;7.3;;;;;;;;;;;;;
2020/05/13 08:20:29;;;;;;;7.9;7.2;;;;;;;;;;;;;
2020/05/13 08:22:54;;;;;;;8.9;8.1;;;;;;;;;;;;;
2020/05/13 08:25:19;;;;;;;8;7.3;;;;;;;;;;;;;
2020/05/13 08:27:44;;;;;;;7.9;7.2;;;;;;;;;;;;;
2020/05/13 08:30:09;;;;;;;8.4;7.6;;;;;;;;;;;;;
2020/05/13 08:32:34;;;;;;;9;8;;;;;;;;;;;;;
2020/05/13 08:34:59;;;;;;;7.7;7;;;;;;;;;;;;;
2020/05/13 08:37:30;;;;;;;7.6;6.8;;;;;;;;;;;;;
2020/05/13 08:39:50;;;;;;;7.5;6.8;;;;;;;;;;;;;
2020/05/13 08:42:15;;;;;;;7.7;7;;;;;;;;;;;;;
2020/05/13 08:44:40;;;;;;;8;7.2;;;;;;;;;;;;;
2020/05/13 08:47:58;;;;;;;7.8;6.8;;;;;;;;;;;;;
2020/05/13 08:50:24;;;;;;;7.9;7.2;;;;;;;;;;;;;
2020/05/13 08:52:49;;;;;;;7.7;7.1;;;;;;;;;;;;;
2020/05/13 08:55:14;;;;;;;8.3;7.6;;;;;;;;;;;;;
2020/05/13 08:57:40;;;;;;;8.1;7.4;;;;;;;;;;;;;
2020/05/13 09:00:05;;;;;;;7.3;6.7;;;;;;;;;;;;;
2020/05/13 09:02:31;;;;;;;7.5;6.8;;;;;;;;;;;;;
2020/05/13 09:04:56;;;;;;;8;7.3;;;;;;;;;;;;;
2020/05/13 09:07:21;;;;;;;7.7;7;;;;;;;;;;;;;
2020/05/13 09:09:46;;;;;;;7.9;7.1;;;;;;;;;;;;;
2020/05/13 09:12:11;;;;;;;8.1;7.4;;;;;;;;;;;;;
2020/05/13 09:14:37;;;;;;;8.1;7.3;;;;;;;;;;;;;
2020/05/13 09:17:02;;;;;;;8;7.3;;;;;;;;;;;;;
2020/05/13 09:19:27;;;;;;;8.1;7.3;;;;;;;;;;;;;
2020/05/13 09:21:52;;;;;;;8.1;7.4;;;;;;;;;;;;;
2020/05/13 09:24:17;;;;;;;7.9;7.2;;;;;;;;;;;;;
2020/05/13 09:26:42;;;;;;;8.2;7.4;;;;;;;;;;;;;
2020/05/13 09:29:07;;;;;;;8.3;7.6;;;;;;;;;;;;;
2020/05/13 09:31:32;;;;;;;8.2;7.5;;;;;;;;;;;;;
2020/05/13 09:33:57;;;;;;;8.5;7.7;;;;;;;;;;;;;
2020/05/13 09:36:22;;;;;;;8.6;7.8;;;;;;;;;;;;;
2020/05/13 09:38:47;;;;;;;8.8;7.9;;;;;;;;;;;;;
2020/05/13 09:41:13;;;;;;;8.2;7.5;;;;;;;;;;;;;
2020/05/13 09:43:38;;;;;;;9.4;8.6;;;;;;;;;;;;;
2020/05/13 09:46:22;;;;;;;9;8.2;;;;;;;;;;;;;
2020/05/13 09:48:43;;;;;;;9.4;8.6;;;;;;;;;;;;;
2020/05/13 09:50:53;;;;;;;9.7;8.8;;;;;;;;;;;;;
2020/05/13 09:53:18;;;;;;;10.2;9.2;;;;;;;;;;;;;
2020/05/13 09:55:50;;;;;;;9.6;8.6;;;;;;;;;;;;;
2020/05/13 09:58:17;;;;;;;9.7;8.8;;;;;;;;;;;;;
2020/05/13 10:00:43;;;;;;;9.2;8.3;;;;;;;;;;;;;
2020/05/13 10:03:37;;;;;;;8.5;7.8;;;;;;;;;;;;;
2020/05/13 10:06:06;;;;;;;8.5;7.7;;;;;;;;;;;;;
2020/05/13 10:08:01;;;;;;;8.6;7.8;;;;;;;;;;;;;
2020/05/13 10:10:33;;;;;;;8.6;7.8;;;;;;;;;;;;;
2020/05/13 10:12:39;;;;;;;9.9;8.8;;;;;;;;;;;;;
2020/05/13 10:15:04;;;;;;;8.2;7.4;;;;;;;;;;;;;
2020/05/13 10:17:29;;;;;;;8.3;7.6;;;;;;;;;;;;;
2020/05/13 10:19:54;;;;;;;8.8;7.9;;;;;;;;;;;;;
2020/05/13 10:22:20;;;;;;;8.5;7.7;;;;;;;;;;;;;
2020/05/13 10:24:45;;;;;;;9.2;8.3;;;;;;;;;;;;;
2020/05/13 10:27:10;;;;;;;9.2;8.3;;;;;;;;;;;;;
2020/05/13 10:29:35;;;;;;;9;8.1;;;;;;;;;;;;;
2020/05/13 10:32:00;;;;;;;10;9.1;;;;;;;;;;;;;
2020/05/13 10:39:24;;;;;;;9.7;8.9;;;;;;;;;;;;;
2020/05/13 10:46:58;;;;;;;11.5;10.3;;;;;;;;;;;;;
2020/05/13 10:49:51;;;;;;;10.1;9.1;;;;;;;;;;;;;
2020/05/13 10:59:13;;;;;;;10.8;9.8;;;;;;;;;;;;;
2020/05/13 11:01:11;;;;;;;10.9;9.9;;;;;;;;;;;;;
2020/05/13 11:06:11;;;;;;;11.7;10.5;;;;;;;;;;;;;
2020/05/13 11:08:32;;;;;;;11.1;10;;;;;;;;;;;;;
2020/05/13 11:11:12;;;;;;;9.9;9;;;;;;;;;;;;;
2020/05/13 11:13:18;;;;;;;10.5;9.5;;;;;;;;;;;;;
2020/05/13 11:18:13;;;;;;;10.5;9.5;;;;;;;;;;;;;
2020/05/13 11:22:08;;;;;;;10.7;9.7;;;;;;;;;;;;;
2020/05/13 11:23:05;;;;;;;10.8;9.8;;;;;;;;;;;;;
2020/05/13 11:28:02;;;;;;;10.9;9.9;;;;;;;;;;;;;
2020/05/13 11:35:32;;;;;;;11.5;10.3;;;;;;;;;;;;;
2020/05/13 11:37:40;;;;;;;12.8;11.6;;;;;;;;;;;;;
2020/05/13 11:42:42;;;;;;;12.1;10.4;;;;;;;;;;;;;
2020/05/13 11:49:48;;;;;;;13.8;12.5;;;;;;;;;;;;;
2020/05/13 11:51:53;;;;;;;13.2;12;;;;;;;;;;;;;
2020/05/13 11:54:18;;;;;;;13.3;11.9;;;;;;;;;;;;;
2020/05/13 11:56:43;;;;;;;13.6;12.4;;;;;;;;;;;;;
2020/05/13 11:59:08;;;;;;;15.6;14;;;;;;;;;;;;;
2020/05/13 12:01:34;;;;;;;15;13.5;;;;;;;;;;;;;
2020/05/13 12:04:00;;;;;;;14.4;12.7;;;;;;;;;;;;;
2020/05/13 12:06:26;;;;;;;14.6;13.3;;;;;;;;;;;;;
2020/05/13 12:08:51;;;;;;;14.9;13.4;;;;;;;;;;;;;
2020/05/13 12:11:16;;;;;;;14.4;13;;;;;;;;;;;;;
2020/05/13 12:13:41;;;;;;;15.1;13.7;;;;;;;;;;;;;
2020/05/13 12:16:06;;;;;;;13.2;11.9;;;;;;;;;;;;;
2020/05/13 12:18:31;;;;;;;13.2;11.9;;;;;;;;;;;;;
2020/05/13 12:20:56;;;;;;;14.2;12.8;;;;;;;;;;;;;
2020/05/13 12:23:21;;;;;;;14.7;13.2;;;;;;;;;;;;;
2020/05/13 12:25:46;;;;;;;15.6;14;;;;;;;;;;;;;
2020/05/13 12:28:11;;;;;;;14.3;12.9;;;;;;;;;;;;;
2020/05/13 12:30:38;;;;;;;14.8;13.3;;;;;;;;;;;;;
2020/05/13 12:33:03;;;;;;;17.2;15.5;;;;;;;;;;;;;
2020/05/13 12:35:28;;;;;;;16.2;14.5;;;;;;;;;;;;;
2020/05/13 12:37:53;;;;;;;16.4;14.9;;;;;;;;;;;;;
2020/05/13 12:40:18;;;;;;;14.4;13.1;;;;;;;;;;;;;
2020/05/13 12:42:43;;;;;;;15;13.6;;;;;;;;;;;;;
2020/05/13 12:45:08;;;;;;;14.7;12.7;;;;;;;;;;;;;
2020/05/13 12:47:34;;;;;;;14.2;12.9;;;;;;;;;;;;;
2020/05/13 12:49:59;;;;;;;12.2;11.1;;;;;;;;;;;;;
2020/05/13 12:52:24;;;;;;;13.4;12.2;;;;;;;;;;;;;
2020/05/13 12:54:49;;;;;;;14.5;13.1;;;;;;;;;;;;;
2020/05/13 12:57:14;;;;;;;12.6;11.5;;;;;;;;;;;;;
2020/05/13 12:59:39;;;;;;;12.8;11.6;;;;;;;;;;;;;
2020/05/13 13:02:04;;;;;;;13.4;12.1;;;;;;;;;;;;;
2020/05/13 13:04:29;;;;;;;13.7;12.4;;;;;;;;;;;;;
2020/05/13 13:06:54;;;;;;;14;12.6;;;;;;;;;;;;;
2020/05/13 13:09:29;;;;;;;12.8;11.6;;;;;;;;;;;;;
2020/05/13 13:11:54;;;;;;;13;11.8;;;;;;;;;;;;;
2020/05/13 13:14:20;;;;;;;12;10.8;;;;;;;;;;;;;
2020/05/13 13:16:46;;;;;;;13.9;12.6;;;;;;;;;;;;;
2020/05/13 13:19:12;;;;;;;14;12.6;;;;;;;;;;;;;
2020/05/13 13:21:37;;;;;;;13.3;11.9;;;;;;;;;;;;;
2020/05/13 13:24:03;;;;;;;12.6;11.3;;;;;;;;;;;;;
2020/05/13 13:26:28;;;;;;;12.7;11.5;;;;;;;;;;;;;
2020/05/13 13:28:54;;;;;;;12.5;11.3;;;;;;;;;;;;;
2020/05/13 13:31:19;;;;;;;11.8;10.8;;;;;;;;;;;;;
2020/05/13 13:33:46;;;;;;;11.2;10.2;;;;;;;;;;;;;
2020/05/13 13:36:11;;;;;;;11.2;10.2;;;;;;;;;;;;;
2020/05/13 13:38:36;;;;;;;10.4;9.4;;;;;;;;;;;;;
2020/05/13 13:41:01;;;;;;;10.8;9.8;;;;;;;;;;;;;
2020/05/13 13:43:27;;;;;;;9.4;8.5;;;;;;;;;;;;;
2020/05/13 13:45:52;;;;;;;10.4;9.5;;;;;;;;;;;;;
2020/05/13 13:48:17;;;;;;;9.9;9;;;;;;;;;;;;;
2020/05/13 13:50:42;;;;;;;9.7;8.8;;;;;;;;;;;;;
2020/05/13 13:53:07;;;;;;;9.6;8.5;;;;;;;;;;;;;
2020/05/13 13:55:32;;;;;;;11.7;10.6;;;;;;;;;;;;;
2020/05/13 13:57:57;;;;;;;12.3;11.1;;;;;;;;;;;;;
2020/05/13 14:00:40;;;;;;;11.4;10.4;;;;;;;;;;;;;
2020/05/13 14:03:04;;;;;;;11.1;9.9;;;;;;;;;;;;;
2020/05/13 14:05:19;;;;;;;10.7;9.7;;;;;;;;;;;;;
2020/05/13 14:07:42;;;;;;;10.4;9.4;;;;;;;;;;;;;
2020/05/13 14:10:07;;;;;;;9.1;8.3;;;;;;;;;;;;;
2020/05/13 14:12:33;;;;;;;9.3;8.4;;;;;;;;;;;;;
2020/05/13 14:14:58;;;;;;;8.8;8;;;;;;;;;;;;;
2020/05/13 14:17:25;;;;;;;9;8.1;;;;;;;;;;;;;
2020/05/13 14:19:50;;;;;;;8.7;7.9;;;;;;;;;;;;;
2020/05/13 14:22:16;;;;;;;10.5;8.6;;;;;;;;;;;;;
2020/05/13 14:24:41;;;;;;;9.7;8.8;;;;;;;;;;;;;
2020/05/13 14:27:07;;;;;;;10.8;8.5;;;;;;;;;;;;;
2020/05/13 14:29:32;;;;;;;9.7;8.8;;;;;;;;;;;;;
2020/05/13 14:31:57;;;;;;;9.8;8.9;;;;;;;;;;;;;
2020/05/13 14:34:22;;;;;;;10.8;9.8;;;;;;;;;;;;;
2020/05/13 14:36:47;;;;;;;11.3;10.2;;;;;;;;;;;;;
2020/05/13 14:39:12;;;;;;;12.1;11;;;;;;;;;;;;;
2020/05/13 14:41:37;;;;;;;12.6;11.4;;;;;;;;;;;;;
2020/05/13 14:44:03;;;;;;;12.4;11.3;;;;;;;;;;;;;
2020/05/13 14:46:51;;;;;;;13.4;12.2;;;;;;;;;;;;;
2020/05/13 14:48:55;;;;;;;13;11.8;;;;;;;;;;;;;
2020/05/13 14:51:20;;;;;;;15.3;13.9;;;;;;;;;;;;;
2020/05/13 14:53:45;;;;;;;13.4;12.1;;;;;;;;;;;;;
2020/05/13 14:56:11;;;;;;;17.8;15.9;;;;;;;;;;;;;
2020/05/13 14:58:36;;;;;;;15.5;14;;;;;;;;;;;;;
2020/05/13 15:01:01;;;;;;;14.4;12.9;;;;;;;;;;;;;
2020/05/13 15:03:26;;;;;;;14.4;13.1;;;;;;;;;;;;;
2020/05/13 15:05:51;;;;;;;16.4;14.7;;;;;;;;;;;;;
2020/05/13 15:08:16;;;;;;;18.1;15.7;;;;;;;;;;;;;
2020/05/13 15:10:43;;;;;;;17.3;15.6;;;;;;;;;;;;;
2020/05/13 15:13:08;;;;;;;18.8;16.9;;;;;;;;;;;;;
2020/05/13 15:15:35;;;;;;;19.8;16.7;;;;;;;;;;;;;
2020/05/13 15:18:00;;;;;;;18.4;16.6;;;;;;;;;;;;;
2020/05/13 15:20:25;;;;;;;18.3;16.5;;;;;;;;;;;;;
2020/05/13 15:22:50;;;;;;;17.1;15.5;;;;;;;;;;;;;
2020/05/13 15:25:15;;;;;;;17.7;15.9;;;;;;;;;;;;;
2020/05/13 15:27:40;;;;;;;15.6;14.2;;;;;;;;;;;;;
2020/05/13 15:30:06;;;;;;;17.7;16;;;;;;;;;;;;;
2020/05/13 15:32:31;;;;;;;18.2;16.3;;;;;;;;;;;;;
2020/05/13 15:34:56;;;;;;;17.7;16;;;;;;;;;;;;;
2020/05/13 15:37:21;;;;;;;18.9;17.2;;;;;;;;;;;;;
2020/05/13 15:39:46;;;;;;;17.6;15.9;;;;;;;;;;;;;
2020/05/13 15:42:11;;;;;;;19.6;17.7;;;;;;;;;;;;;
2020/05/13 15:44:36;;;;;;;19.4;17.6;;;;;;;;;;;;;
2020/05/13 15:47:02;;;;;;;17.6;15.9;;;;;;;;;;;;;
2020/05/13 15:49:27;;;;;;;19.8;17.8;;;;;;;;;;;;;
2020/05/13 15:51:53;;;;;;;19.5;17.6;;;;;;;;;;;;;
2020/05/13 15:54:18;;;;;;;20.5;18.4;;;;;;;;;;;;;
2020/05/13 15:56:44;;;;;;;23.3;21;;;;;;;;;;;;;
2020/05/13 15:59:09;;;;;;;23.4;21.2;;;;;;;;;;;;;
2020/05/13 16:01:36;;;;;;;22.2;20.1;;;;;;;;;;;;;
2020/05/13 16:04:01;;;;;;;23.2;20.9;;;;;;;;;;;;;
2020/05/13 16:06:26;;;;;;;21.7;19.6;;;;;;;;;;;;;
2020/05/13 16:08:51;;;;;;;22.6;20.4;;;;;;;;;;;;;
2020/05/13 16:11:17;;;;;;;25;22.5;;;;;;;;;;;;;
2020/05/13 16:13:42;;;;;;;22.4;20.1;;;;;;;;;;;;;
2020/05/13 16:16:07;;;;;;;17.2;15.4;;;;;;;;;;;;;
2020/05/13 16:18:32;;;;;;;17.2;15.6;;;;;;;;;;;;;
2020/05/13 16:20:57;;;;;;;16.2;14.5;;;;;;;;;;;;;
2020/05/13 16:23:22;;;;;;;15.7;14.2;;;;;;;;;;;;;
2020/05/13 16:25:47;;;;;;;17.9;16;;;;;;;;;;;;;
2020/05/13 16:28:13;;;;;;;16.5;14.9;;;;;;;;;;;;;
2020/05/13 16:33:06;;;;;;;17.2;15.5;;;;;;;;;;;;;
2020/05/13 16:35:29;;;;;;;18.5;16.6;;;;;;;;;;;;;
2020/05/13 16:37:54;;;;;;;19.4;17.4;;;;;;;;;;;;;
2020/05/13 16:40:20;;;;;;;19.3;17.5;;;;;;;;;;;;;
2020/05/13 16:42:45;;;;;;;20.3;18.3;;;;;;;;;;;;;
2020/05/13 16:45:11;;;;;;;20.9;18.9;;;;;;;;;;;;;
2020/05/13 16:47:36;;;;;;;20.8;18.8;;;;;;;;;;;;;
2020/05/13 16:50:01;;;;;;;19.5;17.7;;;;;;;;;;;;;
2020/05/13 16:52:26;;;;;;;19.6;17.8;;;;;;;;;;;;;
2020/05/13 16:54:52;;;;;;;20.6;18.7;;;;;;;;;;;;;
2020/05/13 16:57:17;;;;;;;21.5;19.5;;;;;;;;;;;;;
2020/05/13 16:59:42;;;;;;;23.2;20.9;;;;;;;;;;;;;
2020/05/13 17:02:08;;;;;;;24.1;21.7;;;;;;;;;;;;;
2020/05/13 17:04:33;;;;;;;22.5;20.3;;;;;;;;;;;;;
2020/05/13 17:06:59;;;;;;;23.6;21.3;;;;;;;;;;;;;
2020/05/13 17:09:24;;;;;;;23.2;20.8;;;;;;;;;;;;;
2020/05/13 17:11:50;;;;;;;22.7;20.5;;;;;;;;;;;;;
2020/05/13 17:14:15;;;;;;;21.9;19.8;;;;;;;;;;;;;
2020/05/13 17:16:40;;;;;;;22;19.9;;;;;;;;;;;;;
2020/05/13 17:19:09;;;;;;;20.2;18.3;;;;;;;;;;;;;
2020/05/13 17:21:30;;;;;;;22.4;20.3;;;;;;;;;;;;;
2020/05/13 17:23:55;;;;;;;24.8;22.5;;;;;;;;;;;;;
2020/05/13 17:26:20;;;;;;;25.2;22.7;;;;;;;;;;;;;
2020/05/13 17:28:45;;;;;;;26.2;23.7;;;;;;;;;;;;;
2020/05/13 17:31:10;;;;;;;24.6;22.3;;;;;;;;;;;;;
2020/05/13 17:33:36;;;;;;;22.4;20.3;;;;;;;;;;;;;
2020/05/13 17:36:01;;;;;;;25.5;23.1;;;;;;;;;;;;;
2020/05/13 17:38:26;;;;;;;25.8;23.4;;;;;;;;;;;;;
2020/05/13 17:40:51;;;;;;;25.9;23.4;;;;;;;;;;;;;
2020/05/13 17:43:16;;;;;;;26.3;23.8;;;;;;;;;;;;;
2020/05/13 17:45:41;;;;;;;27.2;24.6;;;;;;;;;;;;;
2020/05/13 17:48:06;;;;;;;22.6;20.4;;;;;;;;;;;;;
2020/05/13 17:50:31;;;;;;;22.2;20;;;;;;;;;;;;;
2020/05/13 17:52:56;;;;;;;21.6;19.4;;;;;;;;;;;;;
2020/05/13 17:55:22;;;;;;;20.9;18.9;;;;;;;;;;;;;
2020/05/13 17:57:46;;;;;;;20.9;18.9;;;;;;;;;;;;;
2020/05/13 18:00:12;;;;;;;20.7;18.8;;;;;;;;;;;;;
2020/05/13 18:02:37;;;;;;;21.1;19;;;;;;;;;;;;;
2020/05/13 18:05:03;;;;;;;23.7;21.5;;;;;;;;;;;;;
2020/05/13 18:07:34;;;;;;;24.1;21.8;;;;;;;;;;;;;
2020/05/13 18:09:58;;;;;;;24;21.7;;;;;;;;;;;;;
2020/05/13 18:12:44;;;;;;;23.2;21;;;;;;;;;;;;;
2020/05/13 18:14:52;;;;;;;22.1;19.9;;;;;;;;;;;;;
2020/05/13 18:17:16;;;;;;;20.9;18.9;;;;;;;;;;;;;
2020/05/13 18:19:50;;;;;;;20.7;18.8;;;;;;;;;;;;;
2020/05/13 18:21:57;;;;;;;22.8;20.6;;;;;;;;;;;;;
2020/05/13 18:24:23;;;;;;;22.9;20.6;;;;;;;;;;;;;
2020/05/13 18:26:48;;;;;;;19.7;17.6;;;;;;;;;;;;;
2020/05/13 18:29:14;;;;;;;19.3;17.5;;;;;;;;;;;;;
2020/05/13 18:31:39;;;;;;;19.6;17.7;;;;;;;;;;;;;
2020/05/13 18:34:04;;;;;;;20.5;18.5;;;;;;;;;;;;;
2020/05/13 18:36:29;;;;;;;18.4;16.7;;;;;;;;;;;;;
2020/05/13 18:38:54;;;;;;;18.6;16.8;;;;;;;;;;;;;
2020/05/13 18:41:19;;;;;;;19.4;17.5;;;;;;;;;;;;;
2020/05/13 18:43:44;;;;;;;19.8;17.8;;;;;;;;;;;;;
2020/05/13 18:46:11;;;;;;;20.2;18.3;;;;;;;;;;;;;
2020/05/13 18:48:34;;;;;;;17.6;15.9;;;;;;;;;;;;;
2020/05/13 18:50:59;;;;;;;18.6;16.8;;;;;;;;;;;;;
2020/05/13 18:53:25;;;;;;;19.8;17.9;;;;;;;;;;;;;
2020/05/13 18:55:50;;;;;;;18.2;16.5;;;;;;;;;;;;;
2020/05/13 18:58:15;;;;;;;17.7;16;;;;;;;;;;;;;
2020/05/13 19:00:40;;;;;;;17.3;15.7;;;;;;;;;;;;;